createdAt,value
2018-11-03T00:02:05.090Z,12.63
2018-11-03T00:04:32.252Z,12.17
2018-11-03T00:06:59.437Z,14.03
2018-11-03T00:09:26.604Z,13.70
2018-11-03T00:11:53.793Z,12.77
2018-11-03T00:14:20.973Z,12.93
2018-11-03T00:16:48.188Z,15.10
2018-11-03T00:19:15.385Z,14.40
2018-11-03T00:21:42.568Z,12.10
2018-11-03T00:24:09.722Z,14.30
2018-11-03T00:26:36.968Z,11.83
2018-11-03T00:29:04.137Z,12.03
2018-11-03T00:31:31.318Z,13.07
2018-11-03T00:33:58.477Z,13.07
2018-11-03T00:36:25.669Z,13.43
2018-11-03T00:38:52.845Z,13.10
2018-11-03T00:41:20.029Z,13.97
2018-11-03T00:43:47.260Z,11.30
2018-11-03T00:46:14.430Z,12.40
2018-11-03T00:48:41.600Z,12.70
2018-11-03T00:51:08.806Z,11.43
2018-11-03T00:53:36.020Z,12.07
2018-11-03T00:56:03.208Z,11.03
2018-11-03T00:58:30.377Z,12.23
2018-11-03T01:00:57.560Z,14.77
2018-11-03T01:03:24.753Z,11.90
2018-11-03T01:05:51.945Z,11.77
2018-11-03T01:08:19.120Z,12.67
2018-11-03T01:10:46.309Z,9.67
2018-11-03T01:13:13.494Z,10.40
2018-11-03T01:15:40.666Z,13.17
2018-11-03T01:18:07.833Z,10.77
2018-11-03T01:20:35.013Z,10.57
2018-11-03T01:23:02.216Z,11.00
2018-11-03T01:25:29.417Z,12.67
2018-11-03T01:27:56.647Z,12.03
2018-11-03T01:30:23.809Z,10.43
2018-11-03T01:32:50.988Z,10.37
2018-11-03T01:35:18.162Z,9.80
2018-11-03T01:37:45.353Z,10.60
2018-11-03T01:40:13.240Z,10.67
2018-11-03T01:42:40.483Z,10.67
2018-11-03T01:45:07.830Z,11.13
2018-11-03T01:47:35.397Z,9.53
2018-11-03T01:50:02.673Z,11.00
2018-11-03T01:52:29.808Z,10.53
2018-11-03T01:54:57.001Z,11.03
2018-11-03T01:57:24.172Z,10.03
2018-11-03T01:59:51.352Z,12.13
2018-11-03T02:02:18.532Z,11.00
2018-11-03T02:04:45.747Z,9.37
2018-11-03T02:07:13.020Z,10.40
2018-11-03T02:09:40.223Z,9.40
2018-11-03T02:12:07.416Z,11.27
2018-11-03T02:14:34.601Z,9.87
2018-11-03T02:17:01.755Z,9.77
2018-11-03T02:19:29.934Z,14.83
2018-11-03T02:21:57.110Z,9.90
2018-11-03T02:24:24.824Z,10.47
2018-11-03T02:26:51.995Z,9.17
2018-11-03T02:29:19.185Z,10.53
2018-11-03T02:31:46.344Z,12.90
2018-11-03T02:34:13.602Z,10.67
2018-11-03T02:36:40.786Z,9.57
2018-11-03T02:39:08.605Z,11.73
2018-11-03T02:41:35.832Z,12.70
2018-11-03T02:44:03.080Z,9.80
2018-11-03T02:46:30.322Z,9.33
2018-11-03T02:48:57.455Z,10.40
2018-11-03T02:51:24.653Z,10.17
2018-11-03T02:53:51.822Z,9.10
2018-11-03T02:56:19.005Z,9.10
2018-11-03T02:58:46.189Z,9.40
2018-11-03T03:01:13.375Z,12.07
2018-11-03T03:03:40.573Z,9.40
2018-11-03T03:06:07.764Z,11.27
2018-11-03T03:08:34.929Z,10.50
2018-11-03T03:11:02.180Z,10.73
2018-11-03T03:13:29.361Z,9.27
2018-11-03T03:15:56.559Z,11.23
2018-11-03T03:18:23.718Z,10.10
2018-11-03T03:20:50.900Z,9.63
2018-11-03T03:23:18.081Z,9.40
2018-11-03T03:25:45.265Z,10.03
2018-11-03T03:28:12.453Z,9.43
2018-11-03T03:30:39.645Z,9.30
2018-11-03T03:33:06.816Z,8.03
2018-11-03T03:35:33.995Z,9.80
2018-11-03T03:38:01.224Z,8.27
2018-11-03T03:40:28.412Z,10.53
2018-11-03T03:42:55.627Z,8.63
2018-11-03T03:45:22.781Z,9.40
2018-11-03T03:47:49.961Z,9.83
2018-11-03T03:50:17.142Z,11.93
2018-11-03T03:52:44.315Z,8.80
2018-11-03T03:55:11.504Z,8.47
2018-11-03T03:57:38.662Z,9.33
2018-11-03T04:00:07.175Z,8.93
2018-11-03T04:02:34.425Z,7.57
2018-11-03T04:05:01.635Z,7.73
2018-11-03T04:07:28.805Z,7.23
2018-11-03T04:09:56.078Z,8.67
2018-11-03T04:12:23.253Z,8.63
2018-11-03T04:14:50.529Z,6.87
2018-11-03T04:17:17.655Z,8.83
2018-11-03T04:19:44.860Z,6.93
2018-11-03T04:22:12.029Z,8.73
2018-11-03T04:24:39.216Z,7.70
2018-11-03T04:27:06.502Z,6.87
2018-11-03T04:29:33.688Z,8.20
2018-11-03T04:32:00.851Z,6.73
2018-11-03T04:34:28.022Z,9.87
2018-11-03T04:36:55.221Z,8.30
2018-11-03T04:39:22.396Z,8.07
2018-11-03T04:41:49.597Z,6.67
2018-11-03T04:44:16.785Z,7.43
2018-11-03T04:46:44.015Z,6.33
2018-11-03T04:49:11.184Z,6.97
2018-11-03T04:51:38.360Z,6.40
2018-11-03T04:54:05.545Z,9.10
2018-11-03T04:56:32.720Z,7.00
2018-11-03T04:58:59.900Z,7.13
2018-11-03T05:01:27.092Z,6.57
2018-11-03T05:03:54.256Z,8.53
2018-11-03T05:06:21.432Z,8.80
2018-11-03T05:08:48.661Z,7.50
2018-11-03T05:11:15.881Z,7.13
2018-11-03T05:13:43.060Z,8.33
2018-11-03T05:16:10.260Z,8.33
2018-11-03T05:18:37.508Z,8.53
2018-11-03T05:21:05.027Z,7.03
2018-11-03T05:23:32.153Z,10.23
2018-11-03T05:25:59.332Z,5.63
2018-11-03T05:28:26.559Z,6.43
2018-11-03T05:30:53.808Z,6.07
2018-11-03T05:33:20.985Z,6.03
2018-11-03T05:35:48.177Z,6.20
2018-11-03T05:38:15.353Z,7.03
2018-11-03T05:40:42.564Z,9.27
2018-11-03T05:43:09.741Z,8.83
2018-11-03T05:45:36.912Z,7.53
2018-11-03T05:48:04.092Z,8.97
2018-11-03T05:50:31.249Z,6.90
2018-11-03T05:52:59.267Z,6.80
2018-11-03T05:55:26.416Z,7.80
2018-11-03T05:57:53.600Z,8.50
2018-11-03T06:00:20.766Z,8.70
2018-11-03T06:02:47.944Z,6.83
2018-11-03T06:05:15.124Z,7.53
2018-11-03T06:07:42.302Z,6.43
2018-11-03T06:10:09.686Z,7.17
2018-11-03T06:12:36.992Z,7.93
2018-11-03T06:15:04.400Z,8.03
2018-11-03T06:17:31.581Z,8.47
2018-11-03T06:19:58.812Z,6.77
2018-11-03T06:22:28.288Z,8.17
2018-11-03T06:24:55.448Z,7.63
2018-11-03T06:27:22.634Z,9.43
2018-11-03T06:29:49.785Z,6.80
2018-11-03T06:32:16.961Z,6.23
2018-11-03T06:34:44.127Z,9.50
2018-11-03T06:37:11.315Z,8.53
2018-11-03T06:39:38.477Z,9.67
2018-11-03T06:42:05.674Z,8.43
2018-11-03T06:44:32.871Z,8.90
2018-11-03T06:47:00.018Z,7.33
2018-11-03T06:49:27.296Z,10.27
2018-11-03T06:51:54.460Z,6.87
2018-11-03T06:54:21.728Z,6.63
2018-11-03T06:56:48.912Z,7.00
2018-11-03T06:59:16.886Z,7.20
2018-11-03T07:01:44.052Z,10.60
2018-11-03T07:04:11.225Z,7.23
2018-11-03T07:06:38.400Z,8.10
2018-11-03T07:09:06.773Z,13.73
2018-11-03T07:11:34.051Z,7.27
2018-11-03T07:14:01.154Z,8.87
2018-11-03T07:16:28.383Z,9.07
2018-11-03T07:18:55.576Z,8.20
2018-11-03T07:21:22.782Z,9.57
2018-11-03T07:23:49.912Z,10.73
2018-11-03T07:26:17.097Z,9.50
2018-11-03T07:28:44.252Z,9.07
2018-11-03T07:31:11.425Z,11.23
2018-11-03T07:33:38.813Z,9.63
2018-11-03T07:36:06.006Z,11.40
2018-11-03T07:38:33.199Z,7.83
2018-11-03T07:41:00.479Z,7.50
2018-11-03T07:43:27.554Z,7.97
2018-11-03T07:45:54.730Z,7.23
2018-11-03T07:48:22.406Z,6.37
2018-11-03T07:50:49.450Z,6.97
2018-11-03T07:53:16.624Z,6.43
2018-11-03T07:55:43.801Z,8.27
2018-11-03T07:58:10.992Z,9.63
2018-11-03T08:00:38.215Z,7.73
2018-11-03T08:03:05.372Z,7.80
2018-11-03T08:05:32.630Z,8.40
2018-11-03T08:07:59.813Z,9.97
2018-11-03T08:10:26.988Z,7.27
2018-11-03T08:12:54.156Z,9.43
2018-11-03T08:15:21.338Z,8.17
2018-11-03T08:17:48.540Z,9.00
2018-11-03T08:20:15.732Z,9.23
2018-11-03T08:22:42.918Z,8.27
2018-11-03T08:25:10.100Z,9.13
2018-11-03T08:27:37.314Z,7.83
2018-11-03T08:30:07.017Z,8.70
2018-11-03T08:32:34.210Z,7.33
2018-11-03T08:35:01.380Z,8.07
2018-11-03T08:37:28.561Z,7.13
2018-11-03T08:39:55.805Z,8.03
2018-11-03T08:42:22.987Z,7.17
2018-11-03T08:44:50.148Z,8.77
2018-11-03T08:47:17.321Z,10.27
2018-11-03T08:49:44.485Z,8.13
2018-11-03T08:52:11.652Z,7.57
2018-11-03T08:54:38.819Z,9.63
2018-11-03T08:57:05.953Z,9.97
2018-11-03T08:59:33.203Z,8.07
2018-11-03T09:02:00.327Z,10.07
2018-11-03T09:04:27.485Z,12.30
2018-11-03T09:06:54.708Z,10.77
2018-11-03T09:09:21.802Z,8.07
2018-11-03T09:11:48.972Z,12.50
2018-11-03T09:14:16.176Z,9.30
2018-11-03T09:16:43.340Z,8.50
2018-11-03T09:19:10.540Z,10.17
2018-11-03T09:21:37.732Z,9.70
2018-11-03T09:24:04.965Z,12.03
2018-11-03T09:26:32.114Z,11.83
2018-11-03T09:28:59.276Z,10.67
2018-11-03T09:31:26.433Z,11.00
2018-11-03T09:33:53.649Z,10.07
2018-11-03T09:36:20.816Z,10.20
2018-11-03T09:38:48.184Z,10.20
2018-11-03T09:41:16.581Z,8.97
2018-11-03T09:43:44.642Z,8.80
2018-11-03T09:46:11.832Z,9.93
2018-11-03T09:48:39.021Z,10.87
2018-11-03T09:51:06.269Z,11.57
2018-11-03T09:53:33.360Z,10.47
2018-11-03T09:56:00.528Z,18.77
2018-11-03T09:58:27.695Z,14.27
2018-11-03T10:00:54.829Z,18.10
2018-11-03T10:03:21.973Z,11.90
2018-11-03T10:05:49.145Z,10.70
2018-11-03T10:08:16.842Z,10.03
2018-11-03T10:10:44.009Z,9.87
2018-11-03T10:13:11.184Z,9.87
2018-11-03T10:15:38.396Z,9.73
2018-11-03T10:18:05.528Z,10.27
2018-11-03T10:20:32.725Z,11.37
2018-11-03T10:22:59.966Z,10.33
2018-11-03T10:25:27.087Z,11.20
2018-11-03T10:27:54.249Z,12.43
2018-11-03T10:30:21.408Z,11.57
2018-11-03T10:32:48.561Z,12.30
2018-11-03T10:35:15.777Z,13.77
2018-11-03T10:37:43.163Z,12.37
2018-11-03T10:40:11.579Z,12.97
2018-11-03T10:42:38.829Z,13.33
2018-11-03T10:45:06.594Z,12.33
2018-11-03T10:47:33.790Z,13.13
2018-11-03T10:50:00.974Z,13.63
2018-11-03T10:52:28.152Z,14.03
2018-11-03T10:54:55.345Z,12.20
2018-11-03T10:57:22.532Z,11.67
2018-11-03T10:59:49.696Z,12.77
2018-11-03T11:02:22.493Z,14.00
2018-11-03T11:04:55.420Z,11.00
2018-11-03T11:07:28.328Z,13.75
2018-11-03T11:10:01.250Z,12.68
2018-11-03T11:12:34.164Z,12.33
2018-11-03T11:15:01.354Z,11.55
2018-11-03T11:17:28.520Z,13.53
2018-11-03T11:19:55.826Z,12.75
2018-11-03T11:22:23.029Z,16.77
2018-11-03T11:24:50.298Z,13.07
2018-11-03T11:27:17.380Z,14.77
2018-11-03T11:29:44.569Z,13.08
2018-11-03T11:32:11.725Z,14.55
2018-11-03T11:34:38.921Z,15.30
2018-11-03T11:37:06.140Z,13.60
2018-11-03T11:39:33.350Z,13.48
2018-11-03T11:42:00.553Z,13.30
2018-11-03T11:44:27.730Z,14.30
2018-11-03T11:46:54.903Z,13.78
2018-11-03T11:49:22.096Z,13.35
2018-11-03T11:51:49.274Z,15.93
2018-11-03T11:54:16.450Z,16.60
2018-11-03T11:56:43.616Z,13.93
2018-11-03T11:59:10.796Z,12.78
2018-11-03T12:01:37.958Z,13.85
2018-11-03T12:04:05.380Z,13.60
2018-11-03T12:06:32.494Z,13.88
2018-11-03T12:08:59.694Z,13.03
2018-11-03T12:11:26.878Z,14.98
2018-11-03T12:13:54.013Z,16.12
2018-11-03T12:16:21.308Z,12.55
2018-11-03T12:18:48.349Z,13.75
2018-11-03T12:21:15.531Z,15.38
2018-11-03T12:23:42.737Z,13.78
2018-11-03T12:26:09.907Z,15.53
2018-11-03T12:28:37.085Z,15.65
2018-11-03T12:31:04.529Z,11.73
2018-11-03T12:33:31.721Z,14.63
2018-11-03T12:35:58.996Z,15.50
2018-11-03T12:38:26.146Z,13.25
2018-11-03T12:40:53.397Z,16.12
2018-11-03T12:43:20.597Z,17.50
2018-11-03T12:45:47.768Z,14.23
2018-11-03T12:48:15.009Z,14.03
2018-11-03T12:50:42.168Z,15.08
2018-11-03T12:53:09.410Z,14.83
2018-11-03T12:55:36.521Z,16.62
2018-11-03T12:58:03.706Z,14.98
2018-11-03T13:00:30.840Z,13.85
2018-11-03T13:02:58.003Z,14.23
2018-11-03T13:05:25.236Z,15.50
2018-11-03T13:07:52.368Z,13.85
2018-11-03T13:10:19.518Z,13.05
2018-11-03T13:12:46.663Z,12.33
2018-11-03T13:15:13.906Z,13.98
2018-11-03T13:17:41.076Z,14.00
2018-11-03T13:20:09.652Z,18.35
2018-11-03T13:22:36.859Z,16.82
2018-11-03T13:25:04.579Z,16.32
2018-11-03T13:27:31.721Z,13.03
2018-11-03T13:29:58.892Z,14.55
2018-11-03T13:32:26.049Z,14.70
2018-11-03T13:34:53.315Z,14.50
2018-11-03T13:37:20.380Z,14.65
2018-11-03T13:39:47.540Z,15.83
2018-11-03T13:42:14.709Z,18.10
2018-11-03T13:44:41.955Z,15.20
2018-11-03T13:47:09.205Z,17.32
2018-11-03T13:49:36.365Z,15.25
2018-11-03T13:52:03.560Z,16.40
2018-11-03T13:54:30.740Z,16.12
2018-11-03T13:56:58.007Z,15.78
2018-11-03T13:59:25.157Z,17.65
2018-11-03T14:01:52.357Z,16.07
2018-11-03T14:04:19.637Z,14.80
2018-11-03T14:06:46.832Z,16.97
2018-11-03T14:09:13.992Z,17.17
2018-11-03T14:11:41.181Z,17.65
2018-11-03T14:14:08.348Z,17.30
2018-11-03T14:16:35.557Z,15.32
2018-11-03T14:19:02.773Z,16.93
2018-11-03T14:21:30.014Z,16.70
2018-11-03T14:23:57.220Z,21.50
2018-11-03T14:26:24.426Z,16.83
2018-11-03T14:28:51.638Z,18.53
2018-11-03T14:31:18.818Z,17.37
2018-11-03T14:33:45.989Z,21.63
2018-11-03T14:36:13.243Z,17.60
2018-11-03T14:38:40.340Z,19.90
2018-11-03T14:41:07.512Z,16.93
2018-11-03T14:43:34.681Z,22.00
2018-11-03T14:46:01.911Z,18.10
2018-11-03T14:48:29.033Z,16.90
2018-11-03T14:50:56.277Z,19.73
2018-11-03T14:53:23.503Z,18.40
2018-11-03T14:55:50.617Z,18.53
2018-11-03T14:58:17.789Z,17.77
2018-11-03T15:00:44.973Z,19.40
2018-11-03T15:03:12.133Z,17.67
2018-11-03T15:05:39.327Z,19.93
2018-11-03T15:08:06.480Z,18.33
2018-11-03T15:10:33.683Z,16.00
2018-11-03T15:13:00.834Z,23.40
2018-11-03T15:15:28.048Z,21.23
2018-11-03T15:17:55.237Z,20.93
2018-11-03T15:20:22.423Z,21.77
2018-11-03T15:22:49.623Z,19.60
2018-11-03T15:25:16.805Z,17.27
2018-11-03T15:27:43.982Z,16.40
2018-11-03T15:30:12.244Z,19.13
2018-11-03T15:32:39.898Z,19.53
2018-11-03T15:35:07.406Z,19.80
2018-11-03T15:37:34.430Z,20.20
2018-11-03T15:40:01.722Z,20.17
2018-11-03T15:42:28.809Z,19.57
2018-11-03T15:44:56.020Z,18.73
2018-11-03T15:47:23.206Z,23.83
2018-11-03T15:49:50.380Z,22.57
2018-11-03T15:52:17.561Z,19.20
2018-11-03T15:54:44.753Z,20.57
2018-11-03T15:57:11.978Z,19.27
2018-11-03T15:59:39.152Z,19.90
2018-11-03T16:02:06.340Z,18.60
2018-11-03T16:04:33.527Z,18.43
2018-11-03T16:07:00.702Z,16.93
2018-11-03T16:09:27.852Z,20.70
2018-11-03T16:11:55.072Z,21.17
2018-11-03T16:14:22.224Z,21.20
2018-11-03T16:16:49.400Z,19.30
2018-11-03T16:19:16.578Z,25.20
2018-11-03T16:21:43.748Z,21.83
2018-11-03T16:24:10.931Z,21.40
2018-11-03T16:26:38.150Z,18.53
2018-11-03T16:29:05.338Z,21.43
2018-11-03T16:31:32.483Z,18.90
2018-11-03T16:33:59.673Z,18.43
2018-11-03T16:36:26.881Z,20.50
2018-11-03T16:38:54.021Z,21.77
2018-11-03T16:41:21.190Z,23.80
2018-11-03T16:43:48.376Z,22.07
2018-11-03T16:46:15.550Z,23.87
2018-11-03T16:48:42.706Z,18.67
2018-11-03T16:51:09.909Z,23.73
2018-11-03T16:53:37.129Z,24.37
2018-11-03T16:56:04.304Z,23.77
2018-11-03T16:58:31.530Z,20.90
2018-11-03T17:00:58.673Z,21.13
2018-11-03T17:03:25.933Z,22.43
2018-11-03T17:05:53.152Z,24.03
2018-11-03T17:08:20.318Z,31.47
2018-11-03T17:10:47.492Z,23.90
2018-11-03T17:13:14.633Z,27.13
2018-11-03T17:15:41.823Z,27.03
2018-11-03T17:18:08.974Z,25.07
2018-11-03T17:20:36.237Z,29.87
2018-11-03T17:23:03.507Z,24.60
2018-11-03T17:25:30.633Z,25.77
2018-11-03T17:27:57.938Z,27.87
2018-11-03T17:30:25.184Z,27.87
2018-11-03T17:32:52.397Z,27.40
2018-11-03T17:35:19.574Z,27.93
2018-11-03T17:37:46.739Z,26.30
2018-11-03T17:40:13.976Z,27.97
2018-11-03T17:42:41.135Z,25.63
2018-11-03T17:45:09.059Z,25.50
2018-11-03T17:47:36.263Z,24.40
2018-11-03T17:50:03.855Z,27.80
2018-11-03T17:52:31.025Z,27.77
2018-11-03T17:54:58.284Z,37.73
2018-11-03T17:57:25.344Z,27.30
2018-11-03T17:59:52.524Z,27.13
2018-11-03T18:02:19.769Z,24.43
2018-11-03T18:04:46.919Z,26.77
2018-11-03T18:07:14.108Z,34.03
2018-11-03T18:09:41.276Z,41.93
2018-11-03T18:12:08.484Z,51.17
2018-11-03T18:14:35.712Z,34.43
2018-11-03T18:17:02.898Z,35.17
2018-11-03T18:19:30.104Z,34.20
2018-11-03T18:21:57.268Z,28.93
2018-11-03T18:24:24.432Z,26.83
2018-11-03T18:26:51.616Z,29.20
2018-11-03T18:29:18.824Z,30.13
2018-11-03T18:31:45.989Z,27.97
2018-11-03T18:34:13.741Z,28.00
2018-11-03T18:36:40.927Z,27.27
2018-11-03T18:39:08.896Z,28.00
2018-11-03T18:41:36.153Z,28.90
2018-11-03T18:44:03.272Z,28.87
2018-11-03T18:46:30.545Z,26.50
2018-11-03T18:48:57.677Z,28.10
2018-11-03T18:51:24.844Z,29.20
2018-11-03T18:53:51.977Z,26.93
2018-11-03T18:56:19.137Z,24.07
2018-11-03T18:58:46.395Z,28.77
2018-11-03T19:01:13.557Z,27.10
2018-11-03T19:03:40.901Z,26.73
2018-11-03T19:06:08.119Z,24.83
2018-11-03T19:08:35.605Z,26.57
2018-11-03T19:11:02.913Z,24.03
2018-11-03T19:13:30.070Z,25.10
2018-11-03T19:15:57.220Z,25.60
2018-11-03T19:18:24.384Z,24.83
2018-11-03T19:20:51.561Z,24.67
2018-11-03T19:23:18.797Z,26.47
2018-11-03T19:25:45.889Z,26.10
2018-11-03T19:28:13.068Z,25.57
2018-11-03T19:30:40.245Z,27.63
2018-11-03T19:33:07.450Z,28.90
2018-11-03T19:35:34.596Z,24.77
2018-11-03T19:38:01.769Z,21.73
2018-11-03T19:40:28.920Z,21.17
2018-11-03T19:42:56.087Z,23.10
2018-11-03T19:45:23.302Z,22.83
2018-11-03T19:47:50.414Z,31.20
2018-11-03T19:50:17.563Z,22.20
2018-11-03T19:52:44.741Z,22.80
2018-11-03T19:55:11.881Z,23.50
2018-11-03T19:57:39.032Z,24.80
2018-11-03T20:00:08.719Z,23.90
2018-11-03T20:02:35.913Z,25.63
2018-11-03T20:05:03.214Z,25.70
2018-11-03T20:07:30.380Z,26.67
2018-11-03T20:09:57.581Z,22.37
2018-11-03T20:12:24.756Z,26.30
2018-11-03T20:14:51.957Z,28.20
2018-11-03T20:17:19.117Z,28.30
2018-11-03T20:19:46.284Z,27.03
2018-11-03T20:22:13.510Z,28.43
2018-11-03T20:24:40.668Z,27.50
2018-11-03T20:27:07.832Z,26.57
2018-11-03T20:29:34.992Z,28.33
2018-11-03T20:32:02.219Z,22.83
2018-11-03T20:34:29.521Z,24.87
2018-11-03T20:36:56.692Z,27.97
2018-11-03T20:39:23.825Z,25.40
2018-11-03T20:41:50.993Z,22.90
2018-11-03T20:44:18.201Z,25.30
2018-11-03T20:46:45.353Z,22.07
2018-11-03T20:49:12.515Z,21.57
2018-11-03T20:51:39.676Z,23.13
2018-11-03T20:54:06.850Z,24.57
2018-11-03T20:56:34.020Z,24.63
2018-11-03T20:59:01.186Z,21.90
2018-11-03T21:01:28.324Z,26.80
2018-11-03T21:03:55.485Z,24.00
2018-11-03T21:06:22.615Z,23.73
2018-11-03T21:08:49.776Z,22.60
2018-11-03T21:11:16.933Z,24.27
2018-11-03T21:13:44.114Z,23.10
2018-11-03T21:16:11.308Z,25.27
2018-11-03T21:18:38.484Z,25.10
2018-11-03T21:21:05.628Z,24.73
2018-11-03T21:23:32.873Z,23.83
2018-11-03T21:25:59.950Z,23.57
2018-11-03T21:28:27.120Z,21.97
2018-11-03T21:30:54.251Z,28.17
2018-11-03T21:33:21.566Z,24.60
2018-11-03T21:35:48.600Z,26.47
2018-11-03T21:38:15.814Z,25.70
2018-11-03T21:40:42.930Z,26.53
2018-11-03T21:43:10.097Z,23.50
2018-11-03T21:45:37.289Z,24.27
2018-11-03T21:48:04.490Z,25.83
2018-11-03T21:50:31.656Z,28.87
2018-11-03T21:52:58.881Z,24.90
2018-11-03T21:55:26.061Z,22.40
2018-11-03T21:57:53.211Z,23.63
2018-11-03T22:00:20.353Z,24.40
2018-11-03T22:02:47.512Z,22.70
2018-11-03T22:05:14.673Z,25.70
2018-11-03T22:07:42.630Z,25.13
2018-11-03T22:10:10.178Z,24.10
2018-11-03T22:12:37.356Z,22.87
2018-11-03T22:15:04.967Z,26.13
2018-11-03T22:17:32.117Z,25.80
2018-11-03T22:19:59.300Z,24.17
2018-11-03T22:22:26.473Z,26.87
2018-11-03T22:24:53.627Z,28.07
2018-11-03T22:27:20.817Z,27.93
2018-11-03T22:29:47.944Z,26.37
2018-11-03T22:32:15.203Z,29.70
2018-11-03T22:34:42.324Z,26.13
2018-11-03T22:37:09.545Z,28.10
2018-11-03T22:39:36.737Z,27.20
2018-11-03T22:42:04.395Z,28.60
2018-11-03T22:44:31.557Z,26.40
2018-11-03T22:46:58.725Z,28.10
2018-11-03T22:49:25.883Z,30.87
2018-11-03T22:51:53.123Z,29.90
2018-11-03T22:54:20.289Z,27.80
2018-11-03T22:56:47.457Z,28.70
2018-11-03T22:59:14.638Z,25.37
2018-11-03T23:01:41.807Z,29.97
2018-11-03T23:04:08.957Z,27.63
2018-11-03T23:06:36.105Z,29.73
2018-11-03T23:09:04.435Z,25.37
2018-11-03T23:11:31.610Z,31.93
2018-11-03T23:13:59.606Z,26.73
2018-11-03T23:16:26.805Z,28.40
2018-11-03T23:18:53.975Z,29.60
2018-11-03T23:21:21.133Z,27.67
2018-11-03T23:23:48.316Z,26.97
2018-11-03T23:26:15.501Z,29.93
2018-11-03T23:28:42.676Z,29.37
2018-11-03T23:31:09.833Z,29.73
2018-11-03T23:33:36.993Z,27.67
2018-11-03T23:36:04.326Z,28.70
2018-11-03T23:38:31.508Z,31.70
2018-11-03T23:40:58.707Z,29.47
2018-11-03T23:43:25.886Z,29.47
2018-11-03T23:45:53.071Z,29.50
2018-11-03T23:48:20.253Z,31.13
2018-11-03T23:50:47.417Z,27.67
2018-11-03T23:53:14.590Z,25.97
2018-11-03T23:55:41.758Z,28.97
2018-11-03T23:58:08.901Z,28.33
